sensor_id;sensor_type;location;lat;lon;timestamp;temperature;humidity
9393;DHT22;4736;52.508;13.422;2023-08-31T00:00:44;15.60;73.20
9393;DHT22;4736;52.508;13.422;2023-08-31T00:03:47;15.70;73.20
9393;DHT22;4736;52.508;13.422;2023-08-31T00:06:51;15.70;73.10
9393;DHT22;4736;52.508;13.422;2023-08-31T00:09:55;15.80;72.90
9393;DHT22;4736;52.508;13.422;2023-08-31T00:12:58;15.80;73.00
9393;DHT22;4736;52.508;13.422;2023-08-31T00:16:10;15.70;73.00
9393;DHT22;4736;52.508;13.422;2023-08-31T00:19:14;15.80;73.00
9393;DHT22;4736;52.508;13.422;2023-08-31T00:22:17;15.70;73.00
9393;DHT22;4736;52.508;13.422;2023-08-31T00:25:21;15.70;73.10
9393;DHT22;4736;52.508;13.422;2023-08-31T00:28:24;15.70;73.10
9393;DHT22;4736;52.508;13.422;2023-08-31T00:31:31;15.70;73.20
9393;DHT22;4736;52.508;13.422;2023-08-31T00:34:35;15.70;73.20
9393;DHT22;4736;52.508;13.422;2023-08-31T00:37:39;15.60;73.30
9393;DHT22;4736;52.508;13.422;2023-08-31T00:40:43;15.60;73.30
9393;DHT22;4736;52.508;13.422;2023-08-31T00:43:47;15.60;73.20
9393;DHT22;4736;52.508;13.422;2023-08-31T00:46:52;15.60;73.30
9393;DHT22;4736;52.508;13.422;2023-08-31T00:49:56;15.60;73.30
9393;DHT22;4736;52.508;13.422;2023-08-31T00:52:59;15.60;73.20
9393;DHT22;4736;52.508;13.422;2023-08-31T00:56:03;15.60;73.20
9393;DHT22;4736;52.508;13.422;2023-08-31T00:59:07;15.60;73.40
9393;DHT22;4736;52.508;13.422;2023-08-31T01:02:19;15.60;73.40
9393;DHT22;4736;52.508;13.422;2023-08-31T01:05:33;15.60;73.50
9393;DHT22;4736;52.508;13.422;2023-08-31T01:08:48;15.50;73.70
9393;DHT22;4736;52.508;13.422;2023-08-31T01:12:00;15.50;73.70
9393;DHT22;4736;52.508;13.422;2023-08-31T01:15:10;15.40;74.10
9393;DHT22;4736;52.508;13.422;2023-08-31T01:18:17;15.40;74.30
9393;DHT22;4736;52.508;13.422;2023-08-31T01:21:25;15.30;74.60
9393;DHT22;4736;52.508;13.422;2023-08-31T01:24:34;15.30;75.00
9393;DHT22;4736;52.508;13.422;2023-08-31T01:27:38;15.30;75.30
9393;DHT22;4736;52.508;13.422;2023-08-31T01:30:41;15.30;76.00
9393;DHT22;4736;52.508;13.422;2023-08-31T01:33:44;15.20;76.10
9393;DHT22;4736;52.508;13.422;2023-08-31T01:36:55;15.20;76.40
9393;DHT22;4736;52.508;13.422;2023-08-31T01:40:04;15.20;76.50
9393;DHT22;4736;52.508;13.422;2023-08-31T01:43:11;15.20;76.50
9393;DHT22;4736;52.508;13.422;2023-08-31T01:46:15;15.20;76.50
9393;DHT22;4736;52.508;13.422;2023-08-31T01:49:19;15.10;76.30
9393;DHT22;4736;52.508;13.422;2023-08-31T01:52:23;15.00;76.00
9393;DHT22;4736;52.508;13.422;2023-08-31T01:55:27;15.00;76.00
9393;DHT22;4736;52.508;13.422;2023-08-31T01:58:31;15.00;76.30
9393;DHT22;4736;52.508;13.422;2023-08-31T02:01:34;15.00;76.50
9393;DHT22;4736;52.508;13.422;2023-08-31T02:04:38;14.90;76.50
9393;DHT22;4736;52.508;13.422;2023-08-31T02:07:41;14.90;76.80
9393;DHT22;4736;52.508;13.422;2023-08-31T02:10:46;14.80;76.90
9393;DHT22;4736;52.508;13.422;2023-08-31T02:13:49;14.70;77.00
9393;DHT22;4736;52.508;13.422;2023-08-31T02:16:53;14.70;77.20
9393;DHT22;4736;52.508;13.422;2023-08-31T02:19:56;14.60;77.50
9393;DHT22;4736;52.508;13.422;2023-08-31T02:22:59;14.50;77.40
9393;DHT22;4736;52.508;13.422;2023-08-31T02:26:04;14.30;77.20
9393;DHT22;4736;52.508;13.422;2023-08-31T02:29:07;14.30;77.20
9393;DHT22;4736;52.508;13.422;2023-08-31T02:32:10;14.30;77.30
9393;DHT22;4736;52.508;13.422;2023-08-31T02:35:14;14.20;76.90
9393;DHT22;4736;52.508;13.422;2023-08-31T02:38:17;14.20;76.70
9393;DHT22;4736;52.508;13.422;2023-08-31T02:41:22;14.10;76.90
9393;DHT22;4736;52.508;13.422;2023-08-31T02:44:25;14.10;76.90
9393;DHT22;4736;52.508;13.422;2023-08-31T02:47:28;14.10;76.70
9393;DHT22;4736;52.508;13.422;2023-08-31T02:50:31;14.00;76.90
9393;DHT22;4736;52.508;13.422;2023-08-31T02:53:34;14.00;77.20
9393;DHT22;4736;52.508;13.422;2023-08-31T02:56:39;13.90;77.30
9393;DHT22;4736;52.508;13.422;2023-08-31T02:59:42;13.90;77.30
9393;DHT22;4736;52.508;13.422;2023-08-31T03:02:46;13.90;77.30
9393;DHT22;4736;52.508;13.422;2023-08-31T03:05:57;13.90;77.70
9393;DHT22;4736;52.508;13.422;2023-08-31T03:09:00;13.90;77.70
9393;DHT22;4736;52.508;13.422;2023-08-31T03:12:06;13.90;78.00
9393;DHT22;4736;52.508;13.422;2023-08-31T03:15:09;13.90;77.90
9393;DHT22;4736;52.508;13.422;2023-08-31T03:18:13;13.90;77.90
9393;DHT22;4736;52.508;13.422;2023-08-31T03:21:16;13.90;77.80
9393;DHT22;4736;52.508;13.422;2023-08-31T03:24:19;13.90;77.60
9393;DHT22;4736;52.508;13.422;2023-08-31T03:27:24;13.90;77.60
9393;DHT22;4736;52.508;13.422;2023-08-31T03:30:27;13.90;77.50
9393;DHT22;4736;52.508;13.422;2023-08-31T03:33:30;13.80;77.50
9393;DHT22;4736;52.508;13.422;2023-08-31T03:36:33;13.70;77.50
9393;DHT22;4736;52.508;13.422;2023-08-31T03:39:37;13.70;77.60
9393;DHT22;4736;52.508;13.422;2023-08-31T03:42:42;13.70;77.60
9393;DHT22;4736;52.508;13.422;2023-08-31T03:45:47;13.70;77.70
9393;DHT22;4736;52.508;13.422;2023-08-31T03:48:51;13.70;77.70
9393;DHT22;4736;52.508;13.422;2023-08-31T03:51:54;13.70;77.80
9393;DHT22;4736;52.508;13.422;2023-08-31T03:54:57;13.70;78.00
9393;DHT22;4736;52.508;13.422;2023-08-31T03:58:04;13.70;78.30
9393;DHT22;4736;52.508;13.422;2023-08-31T04:01:10;13.70;78.00
9393;DHT22;4736;52.508;13.422;2023-08-31T04:04:16;13.70;78.30
9393;DHT22;4736;52.508;13.422;2023-08-31T04:07:22;13.70;78.50
9393;DHT22;4736;52.508;13.422;2023-08-31T04:10:25;13.70;78.90
9393;DHT22;4736;52.508;13.422;2023-08-31T04:13:35;13.60;79.40
9393;DHT22;4736;52.508;13.422;2023-08-31T04:16:41;13.60;79.40
9393;DHT22;4736;52.508;13.422;2023-08-31T04:19:44;13.50;79.90
9393;DHT22;4736;52.508;13.422;2023-08-31T04:22:52;13.50;80.10
9393;DHT22;4736;52.508;13.422;2023-08-31T04:25:55;13.50;80.40
9393;DHT22;4736;52.508;13.422;2023-08-31T04:29:03;13.50;80.30
9393;DHT22;4736;52.508;13.422;2023-08-31T04:32:09;13.50;80.50
9393;DHT22;4736;52.508;13.422;2023-08-31T04:35:17;13.50;80.60
9393;DHT22;4736;52.508;13.422;2023-08-31T04:38:26;13.50;80.80
9393;DHT22;4736;52.508;13.422;2023-08-31T04:41:30;13.50;80.80
9393;DHT22;4736;52.508;13.422;2023-08-31T04:44:35;13.50;80.80
9393;DHT22;4736;52.508;13.422;2023-08-31T04:47:39;13.50;80.90
9393;DHT22;4736;52.508;13.422;2023-08-31T04:50:43;13.50;81.00
9393;DHT22;4736;52.508;13.422;2023-08-31T04:53:46;13.60;80.80
9393;DHT22;4736;52.508;13.422;2023-08-31T04:56:52;13.60;81.00
9393;DHT22;4736;52.508;13.422;2023-08-31T05:00:00;13.60;80.90
9393;DHT22;4736;52.508;13.422;2023-08-31T05:03:29;13.60;81.20
9393;DHT22;4736;52.508;13.422;2023-08-31T05:06:34;13.50;81.50
9393;DHT22;4736;52.508;13.422;2023-08-31T05:09:37;13.60;81.70
9393;DHT22;4736;52.508;13.422;2023-08-31T05:12:53;13.60;81.60
9393;DHT22;4736;52.508;13.422;2023-08-31T05:16:00;13.60;81.50
9393;DHT22;4736;52.508;13.422;2023-08-31T05:19:14;13.70;81.50
9393;DHT22;4736;52.508;13.422;2023-08-31T05:22:25;13.70;81.30
9393;DHT22;4736;52.508;13.422;2023-08-31T05:25:48;13.70;81.50
9393;DHT22;4736;52.508;13.422;2023-08-31T05:28:55;13.80;81.30
9393;DHT22;4736;52.508;13.422;2023-08-31T05:31:59;13.80;81.20
9393;DHT22;4736;52.508;13.422;2023-08-31T05:35:03;13.90;81.10
9393;DHT22;4736;52.508;13.422;2023-08-31T05:38:09;13.80;81.10
9393;DHT22;4736;52.508;13.422;2023-08-31T05:41:14;13.80;81.20
9393;DHT22;4736;52.508;13.422;2023-08-31T05:44:18;13.90;81.30
9393;DHT22;4736;52.508;13.422;2023-08-31T05:47:25;13.80;81.00
9393;DHT22;4736;52.508;13.422;2023-08-31T05:50:32;13.80;81.10
9393;DHT22;4736;52.508;13.422;2023-08-31T05:53:35;13.80;81.30
9393;DHT22;4736;52.508;13.422;2023-08-31T05:56:39;13.80;81.30
9393;DHT22;4736;52.508;13.422;2023-08-31T05:59:42;13.90;80.80
9393;DHT22;4736;52.508;13.422;2023-08-31T06:02:47;13.80;80.70
9393;DHT22;4736;52.508;13.422;2023-08-31T06:05:52;13.90;80.50
9393;DHT22;4736;52.508;13.422;2023-08-31T06:08:55;13.90;80.70
9393;DHT22;4736;52.508;13.422;2023-08-31T06:11:59;13.90;80.70
9393;DHT22;4736;52.508;13.422;2023-08-31T06:15:04;14.00;80.70
9393;DHT22;4736;52.508;13.422;2023-08-31T06:18:16;14.10;79.90
9393;DHT22;4736;52.508;13.422;2023-08-31T06:21:46;14.10;79.70
9393;DHT22;4736;52.508;13.422;2023-08-31T06:24:54;14.00;80.00
9393;DHT22;4736;52.508;13.422;2023-08-31T06:28:04;14.00;79.80
9393;DHT22;4736;52.508;13.422;2023-08-31T06:31:21;14.00;79.80
9393;DHT22;4736;52.508;13.422;2023-08-31T06:34:46;14.10;79.80
9393;DHT22;4736;52.508;13.422;2023-08-31T06:38:13;14.10;79.20
9393;DHT22;4736;52.508;13.422;2023-08-31T06:41:38;14.20;78.90
9393;DHT22;4736;52.508;13.422;2023-08-31T06:44:53;14.20;79.10
9393;DHT22;4736;52.508;13.422;2023-08-31T06:48:12;14.30;79.20
9393;DHT22;4736;52.508;13.422;2023-08-31T06:51:19;14.40;78.60
9393;DHT22;4736;52.508;13.422;2023-08-31T06:54:42;14.50;78.00
9393;DHT22;4736;52.508;13.422;2023-08-31T06:58:06;14.40;77.80
9393;DHT22;4736;52.508;13.422;2023-08-31T07:01:15;14.40;77.80
9393;DHT22;4736;52.508;13.422;2023-08-31T07:08:14;14.40;77.70
9393;DHT22;4736;52.508;13.422;2023-08-31T07:11:58;14.30;77.40
9393;DHT22;4736;52.508;13.422;2023-08-31T07:15:15;14.40;77.00
9393;DHT22;4736;52.508;13.422;2023-08-31T07:18:35;14.40;76.90
9393;DHT22;4736;52.508;13.422;2023-08-31T07:22:29;14.40;76.90
9393;DHT22;4736;52.508;13.422;2023-08-31T07:25:59;14.40;76.70
9393;DHT22;4736;52.508;13.422;2023-08-31T07:29:06;14.50;76.10
9393;DHT22;4736;52.508;13.422;2023-08-31T07:32:23;14.50;76.20
9393;DHT22;4736;52.508;13.422;2023-08-31T07:36:06;14.60;76.00
9393;DHT22;4736;52.508;13.422;2023-08-31T07:39:33;14.60;75.90
9393;DHT22;4736;52.508;13.422;2023-08-31T07:42:41;14.70;76.20
9393;DHT22;4736;52.508;13.422;2023-08-31T07:45:45;14.70;75.50
9393;DHT22;4736;52.508;13.422;2023-08-31T07:48:51;14.70;75.30
9393;DHT22;4736;52.508;13.422;2023-08-31T07:51:54;14.80;75.60
9393;DHT22;4736;52.508;13.422;2023-08-31T07:55:10;14.80;75.00
9393;DHT22;4736;52.508;13.422;2023-08-31T07:58:15;14.70;75.10
9393;DHT22;4736;52.508;13.422;2023-08-31T08:01:20;14.70;75.00
9393;DHT22;4736;52.508;13.422;2023-08-31T08:04:24;14.70;73.80
9393;DHT22;4736;52.508;13.422;2023-08-31T08:07:28;14.60;74.10
9393;DHT22;4736;52.508;13.422;2023-08-31T08:10:32;14.70;73.90
9393;DHT22;4736;52.508;13.422;2023-08-31T08:13:39;14.70;73.20
9393;DHT22;4736;52.508;13.422;2023-08-31T08:16:43;14.70;72.70
9393;DHT22;4736;52.508;13.422;2023-08-31T08:19:47;14.70;72.70
9393;DHT22;4736;52.508;13.422;2023-08-31T08:22:50;15.00;72.50
9393;DHT22;4736;52.508;13.422;2023-08-31T08:25:54;15.20;71.50
9393;DHT22;4736;52.508;13.422;2023-08-31T08:28:59;15.50;70.70
9393;DHT22;4736;52.508;13.422;2023-08-31T08:32:02;15.90;70.10
9393;DHT22;4736;52.508;13.422;2023-08-31T08:35:07;15.80;69.60
9393;DHT22;4736;52.508;13.422;2023-08-31T08:38:11;15.70;69.90
9393;DHT22;4736;52.508;13.422;2023-08-31T08:41:14;15.60;70.50
9393;DHT22;4736;52.508;13.422;2023-08-31T08:44:25;15.80;70.70
9393;DHT22;4736;52.508;13.422;2023-08-31T08:47:29;15.80;69.00
9393;DHT22;4736;52.508;13.422;2023-08-31T08:50:33;15.80;68.50
9393;DHT22;4736;52.508;13.422;2023-08-31T08:53:37;15.80;68.30
9393;DHT22;4736;52.508;13.422;2023-08-31T08:56:41;15.80;67.80
9393;DHT22;4736;52.508;13.422;2023-08-31T08:59:46;15.90;67.70
9393;DHT22;4736;52.508;13.422;2023-08-31T09:02:49;16.00;67.40
9393;DHT22;4736;52.508;13.422;2023-08-31T09:05:52;16.00;67.00
9393;DHT22;4736;52.508;13.422;2023-08-31T09:08:58;15.80;67.30
9393;DHT22;4736;52.508;13.422;2023-08-31T09:12:06;15.90;67.50
9393;DHT22;4736;52.508;13.422;2023-08-31T09:15:12;15.90;67.20
9393;DHT22;4736;52.508;13.422;2023-08-31T09:18:22;16.00;67.30
9393;DHT22;4736;52.508;13.422;2023-08-31T09:21:35;16.10;67.30
9393;DHT22;4736;52.508;13.422;2023-08-31T09:24:42;16.40;66.80
9393;DHT22;4736;52.508;13.422;2023-08-31T09:27:46;16.60;66.50
9393;DHT22;4736;52.508;13.422;2023-08-31T09:30:51;16.90;64.40
9393;DHT22;4736;52.508;13.422;2023-08-31T09:33:55;17.20;63.90
9393;DHT22;4736;52.508;13.422;2023-08-31T09:37:09;17.30;63.90
9393;DHT22;4736;52.508;13.422;2023-08-31T09:40:14;17.10;63.90
9393;DHT22;4736;52.508;13.422;2023-08-31T09:43:22;17.00;64.10
9393;DHT22;4736;52.508;13.422;2023-08-31T09:46:27;17.10;64.00
9393;DHT22;4736;52.508;13.422;2023-08-31T09:49:33;17.00;63.60
9393;DHT22;4736;52.508;13.422;2023-08-31T09:52:37;17.00;64.00
9393;DHT22;4736;52.508;13.422;2023-08-31T09:55:43;17.20;64.20
9393;DHT22;4736;52.508;13.422;2023-08-31T09:58:47;17.20;63.60
9393;DHT22;4736;52.508;13.422;2023-08-31T10:01:52;17.30;63.20
9393;DHT22;4736;52.508;13.422;2023-08-31T10:04:58;17.40;60.50
9393;DHT22;4736;52.508;13.422;2023-08-31T10:08:02;17.80;60.70
9393;DHT22;4736;52.508;13.422;2023-08-31T10:11:06;17.80;59.60
9393;DHT22;4736;52.508;13.422;2023-08-31T10:14:15;17.80;59.60
9393;DHT22;4736;52.508;13.422;2023-08-31T10:17:21;17.90;59.40
9393;DHT22;4736;52.508;13.422;2023-08-31T10:20:24;18.30;58.40
9393;DHT22;4736;52.508;13.422;2023-08-31T10:23:30;18.50;57.30
9393;DHT22;4736;52.508;13.422;2023-08-31T10:26:35;18.40;57.70
9393;DHT22;4736;52.508;13.422;2023-08-31T10:29:38;18.50;58.60
9393;DHT22;4736;52.508;13.422;2023-08-31T10:32:43;18.20;57.00
9393;DHT22;4736;52.508;13.422;2023-08-31T10:35:50;18.10;57.90
9393;DHT22;4736;52.508;13.422;2023-08-31T10:39:00;17.80;57.40
9393;DHT22;4736;52.508;13.422;2023-08-31T10:42:04;17.60;58.70
9393;DHT22;4736;52.508;13.422;2023-08-31T10:45:08;17.20;63.50
9393;DHT22;4736;52.508;13.422;2023-08-31T10:48:12;16.50;65.70
9393;DHT22;4736;52.508;13.422;2023-08-31T10:51:16;15.80;66.60
9393;DHT22;4736;52.508;13.422;2023-08-31T10:54:21;15.40;68.30
9393;DHT22;4736;52.508;13.422;2023-08-31T10:57:30;15.40;69.70
9393;DHT22;4736;52.508;13.422;2023-08-31T11:00:46;15.50;70.50
9393;DHT22;4736;52.508;13.422;2023-08-31T11:03:58;15.60;70.90
9393;DHT22;4736;52.508;13.422;2023-08-31T11:07:15;15.70;70.20
9393;DHT22;4736;52.508;13.422;2023-08-31T11:10:20;15.80;69.80
9393;DHT22;4736;52.508;13.422;2023-08-31T11:13:24;16.00;70.00
9393;DHT22;4736;52.508;13.422;2023-08-31T11:16:30;16.20;70.20
9393;DHT22;4736;52.508;13.422;2023-08-31T11:19:36;16.10;68.70
9393;DHT22;4736;52.508;13.422;2023-08-31T11:22:41;16.20;69.30
9393;DHT22;4736;52.508;13.422;2023-08-31T11:25:44;16.40;69.80
9393;DHT22;4736;52.508;13.422;2023-08-31T11:28:47;16.40;68.70
9393;DHT22;4736;52.508;13.422;2023-08-31T11:31:50;16.70;68.40
9393;DHT22;4736;52.508;13.422;2023-08-31T11:34:55;16.80;68.90
9393;DHT22;4736;52.508;13.422;2023-08-31T11:37:58;17.20;68.00
9393;DHT22;4736;52.508;13.422;2023-08-31T11:41:02;17.50;66.90
9393;DHT22;4736;52.508;13.422;2023-08-31T11:44:06;17.90;64.70
9393;DHT22;4736;52.508;13.422;2023-08-31T11:47:09;18.10;63.90
9393;DHT22;4736;52.508;13.422;2023-08-31T11:50:16;18.10;64.00
9393;DHT22;4736;52.508;13.422;2023-08-31T11:53:21;18.00;63.50
9393;DHT22;4736;52.508;13.422;2023-08-31T11:56:24;18.00;64.20
9393;DHT22;4736;52.508;13.422;2023-08-31T11:59:27;18.00;63.50
9393;DHT22;4736;52.508;13.422;2023-08-31T12:02:34;17.60;63.00
9393;DHT22;4736;52.508;13.422;2023-08-31T12:05:50;17.40;64.80
9393;DHT22;4736;52.508;13.422;2023-08-31T12:08:59;17.20;66.20
9393;DHT22;4736;52.508;13.422;2023-08-31T12:12:03;17.00;67.50
9393;DHT22;4736;52.508;13.422;2023-08-31T12:15:07;16.80;68.70
9393;DHT22;4736;52.508;13.422;2023-08-31T12:18:11;16.50;67.80
9393;DHT22;4736;52.508;13.422;2023-08-31T12:21:19;16.80;69.10
9393;DHT22;4736;52.508;13.422;2023-08-31T12:24:23;17.30;67.00
9393;DHT22;4736;52.508;13.422;2023-08-31T12:27:26;17.70;67.10
9393;DHT22;4736;52.508;13.422;2023-08-31T12:30:31;17.60;66.00
9393;DHT22;4736;52.508;13.422;2023-08-31T12:33:34;18.00;65.20
9393;DHT22;4736;52.508;13.422;2023-08-31T12:36:39;18.20;65.20
9393;DHT22;4736;52.508;13.422;2023-08-31T12:39:43;18.00;65.40
9393;DHT22;4736;52.508;13.422;2023-08-31T12:42:47;17.80;65.40
9393;DHT22;4736;52.508;13.422;2023-08-31T12:45:50;17.60;66.40
9393;DHT22;4736;52.508;13.422;2023-08-31T12:48:53;17.50;67.10
9393;DHT22;4736;52.508;13.422;2023-08-31T12:51:58;17.40;67.80
9393;DHT22;4736;52.508;13.422;2023-08-31T12:55:01;17.50;68.00
9393;DHT22;4736;52.508;13.422;2023-08-31T12:58:06;17.70;67.70
9393;DHT22;4736;52.508;13.422;2023-08-31T13:01:10;17.80;67.50
9393;DHT22;4736;52.508;13.422;2023-08-31T13:04:13;17.60;64.00
9393;DHT22;4736;52.508;13.422;2023-08-31T13:07:18;17.50;66.50
9393;DHT22;4736;52.508;13.422;2023-08-31T13:10:21;17.50;64.30
9393;DHT22;4736;52.508;13.422;2023-08-31T13:13:25;17.50;62.80
9393;DHT22;4736;52.508;13.422;2023-08-31T13:16:29;17.40;64.10
9393;DHT22;4736;52.508;13.422;2023-08-31T13:19:32;17.40;64.10
9393;DHT22;4736;52.508;13.422;2023-08-31T13:22:36;17.50;63.70
9393;DHT22;4736;52.508;13.422;2023-08-31T13:25:40;17.60;63.20
9393;DHT22;4736;52.508;13.422;2023-08-31T13:28:43;17.80;62.10
9393;DHT22;4736;52.508;13.422;2023-08-31T13:31:47;18.00;61.60
9393;DHT22;4736;52.508;13.422;2023-08-31T13:34:50;18.20;61.50
9393;DHT22;4736;52.508;13.422;2023-08-31T13:37:55;18.00;60.90
9393;DHT22;4736;52.508;13.422;2023-08-31T13:40:58;17.50;61.30
9393;DHT22;4736;52.508;13.422;2023-08-31T13:44:01;17.20;62.20
9393;DHT22;4736;52.508;13.422;2023-08-31T13:47:04;17.10;61.90
9393;DHT22;4736;52.508;13.422;2023-08-31T13:50:08;16.90;62.50
9393;DHT22;4736;52.508;13.422;2023-08-31T13:53:15;16.90;63.00
9393;DHT22;4736;52.508;13.422;2023-08-31T13:56:19;16.80;63.40
9393;DHT22;4736;52.508;13.422;2023-08-31T13:59:22;16.70;63.10
9393;DHT22;4736;52.508;13.422;2023-08-31T14:02:26;16.60;63.80
9393;DHT22;4736;52.508;13.422;2023-08-31T14:05:29;16.50;63.40
9393;DHT22;4736;52.508;13.422;2023-08-31T14:08:34;16.40;63.90
9393;DHT22;4736;52.508;13.422;2023-08-31T14:11:37;16.30;63.20
9393;DHT22;4736;52.508;13.422;2023-08-31T14:14:40;16.40;63.20
9393;DHT22;4736;52.508;13.422;2023-08-31T14:17:44;16.50;63.50
9393;DHT22;4736;52.508;13.422;2023-08-31T14:20:47;16.40;63.90
9393;DHT22;4736;52.508;13.422;2023-08-31T14:23:52;16.40;64.50
9393;DHT22;4736;52.508;13.422;2023-08-31T14:26:57;16.60;64.60
9393;DHT22;4736;52.508;13.422;2023-08-31T14:30:04;16.60;63.40
9393;DHT22;4736;52.508;13.422;2023-08-31T14:33:07;16.70;63.50
9393;DHT22;4736;52.508;13.422;2023-08-31T14:36:12;16.80;61.00
9393;DHT22;4736;52.508;13.422;2023-08-31T14:39:17;16.50;62.20
9393;DHT22;4736;52.508;13.422;2023-08-31T14:42:20;16.50;62.50
9393;DHT22;4736;52.508;13.422;2023-08-31T14:45:23;16.50;62.20
9393;DHT22;4736;52.508;13.422;2023-08-31T14:48:26;16.40;60.70
9393;DHT22;4736;52.508;13.422;2023-08-31T14:51:29;16.40;61.10
9393;DHT22;4736;52.508;13.422;2023-08-31T14:54:34;16.40;60.90
9393;DHT22;4736;52.508;13.422;2023-08-31T14:57:37;16.70;60.50
9393;DHT22;4736;52.508;13.422;2023-08-31T15:00:43;17.00;59.80
9393;DHT22;4736;52.508;13.422;2023-08-31T15:03:47;17.10;58.70
9393;DHT22;4736;52.508;13.422;2023-08-31T15:06:53;17.10;59.00
9393;DHT22;4736;52.508;13.422;2023-08-31T15:09:59;17.00;59.80
9393;DHT22;4736;52.508;13.422;2023-08-31T15:13:03;16.90;60.10
9393;DHT22;4736;52.508;13.422;2023-08-31T15:16:07;16.70;60.70
9393;DHT22;4736;52.508;13.422;2023-08-31T15:19:10;16.70;61.50
9393;DHT22;4736;52.508;13.422;2023-08-31T15:22:13;16.70;61.00
9393;DHT22;4736;52.508;13.422;2023-08-31T15:25:18;16.80;60.70
9393;DHT22;4736;52.508;13.422;2023-08-31T15:28:21;16.80;60.80
9393;DHT22;4736;52.508;13.422;2023-08-31T15:31:24;17.00;60.90
9393;DHT22;4736;52.508;13.422;2023-08-31T15:34:28;17.20;60.50
9393;DHT22;4736;52.508;13.422;2023-08-31T15:37:32;17.10;60.80
9393;DHT22;4736;52.508;13.422;2023-08-31T15:40:37;17.00;60.10
9393;DHT22;4736;52.508;13.422;2023-08-31T15:43:40;16.90;60.70
9393;DHT22;4736;52.508;13.422;2023-08-31T15:46:45;16.50;61.20
9393;DHT22;4736;52.508;13.422;2023-08-31T15:49:52;16.40;61.50
9393;DHT22;4736;52.508;13.422;2023-08-31T15:52:57;16.50;61.40
9393;DHT22;4736;52.508;13.422;2023-08-31T15:56:02;16.60;61.20
9393;DHT22;4736;52.508;13.422;2023-08-31T15:59:06;16.60;60.30
9393;DHT22;4736;52.508;13.422;2023-08-31T16:02:09;16.50;60.40
9393;DHT22;4736;52.508;13.422;2023-08-31T16:05:13;16.40;60.40
9393;DHT22;4736;52.508;13.422;2023-08-31T16:08:16;16.00;61.00
9393;DHT22;4736;52.508;13.422;2023-08-31T16:11:21;16.00;61.60
9393;DHT22;4736;52.508;13.422;2023-08-31T16:14:26;16.00;61.70
9393;DHT22;4736;52.508;13.422;2023-08-31T16:17:30;15.60;62.20
9393;DHT22;4736;52.508;13.422;2023-08-31T16:20:35;15.50;62.70
9393;DHT22;4736;52.508;13.422;2023-08-31T16:23:38;15.40;63.50
9393;DHT22;4736;52.508;13.422;2023-08-31T16:26:43;15.40;63.20
9393;DHT22;4736;52.508;13.422;2023-08-31T16:29:46;15.30;63.60
9393;DHT22;4736;52.508;13.422;2023-08-31T16:32:52;15.40;63.60
9393;DHT22;4736;52.508;13.422;2023-08-31T16:35:56;15.40;62.50
9393;DHT22;4736;52.508;13.422;2023-08-31T16:39:00;15.30;62.10
9393;DHT22;4736;52.508;13.422;2023-08-31T16:42:05;15.30;62.70
9393;DHT22;4736;52.508;13.422;2023-08-31T16:45:09;15.30;62.70
9393;DHT22;4736;52.508;13.422;2023-08-31T16:48:12;15.10;61.70
9393;DHT22;4736;52.508;13.422;2023-08-31T16:51:16;15.10;62.50
9393;DHT22;4736;52.508;13.422;2023-08-31T16:54:19;15.10;62.40
9393;DHT22;4736;52.508;13.422;2023-08-31T16:57:24;15.00;64.00
9393;DHT22;4736;52.508;13.422;2023-08-31T17:00:27;14.90;65.20
9393;DHT22;4736;52.508;13.422;2023-08-31T17:03:32;14.80;66.20
9393;DHT22;4736;52.508;13.422;2023-08-31T17:06:35;14.70;68.00
9393;DHT22;4736;52.508;13.422;2023-08-31T17:09:38;14.60;67.60
9393;DHT22;4736;52.508;13.422;2023-08-31T17:12:43;14.40;68.50
9393;DHT22;4736;52.508;13.422;2023-08-31T17:15:46;14.20;69.40
9393;DHT22;4736;52.508;13.422;2023-08-31T17:18:50;14.00;70.00
9393;DHT22;4736;52.508;13.422;2023-08-31T17:21:54;13.90;71.20
9393;DHT22;4736;52.508;13.422;2023-08-31T17:24:57;13.90;71.80
9393;DHT22;4736;52.508;13.422;2023-08-31T17:28:04;13.70;71.70
9393;DHT22;4736;52.508;13.422;2023-08-31T17:31:08;13.60;71.50
9393;DHT22;4736;52.508;13.422;2023-08-31T17:34:11;13.60;71.40
9393;DHT22;4736;52.508;13.422;2023-08-31T17:37:18;13.50;71.50
9393;DHT22;4736;52.508;13.422;2023-08-31T17:40:21;13.40;71.20
9393;DHT22;4736;52.508;13.422;2023-08-31T17:43:25;13.30;70.90
9393;DHT22;4736;52.508;13.422;2023-08-31T17:46:29;13.30;70.90
9393;DHT22;4736;52.508;13.422;2023-08-31T17:49:32;13.30;70.70
9393;DHT22;4736;52.508;13.422;2023-08-31T17:52:36;13.30;71.00
9393;DHT22;4736;52.508;13.422;2023-08-31T17:55:39;13.30;71.50
9393;DHT22;4736;52.508;13.422;2023-08-31T17:58:43;13.30;71.00
9393;DHT22;4736;52.508;13.422;2023-08-31T18:01:46;13.30;71.20
9393;DHT22;4736;52.508;13.422;2023-08-31T18:04:50;13.30;71.60
9393;DHT22;4736;52.508;13.422;2023-08-31T18:07:53;13.20;72.10
9393;DHT22;4736;52.508;13.422;2023-08-31T18:10:59;13.20;72.60
9393;DHT22;4736;52.508;13.422;2023-08-31T18:14:03;13.10;72.70
9393;DHT22;4736;52.508;13.422;2023-08-31T18:17:08;13.10;73.30
9393;DHT22;4736;52.508;13.422;2023-08-31T18:20:11;13.10;73.50
9393;DHT22;4736;52.508;13.422;2023-08-31T18:23:15;13.00;73.80
9393;DHT22;4736;52.508;13.422;2023-08-31T18:26:18;13.00;73.80
9393;DHT22;4736;52.508;13.422;2023-08-31T18:29:23;13.00;73.90
9393;DHT22;4736;52.508;13.422;2023-08-31T18:32:26;13.00;73.30
9393;DHT22;4736;52.508;13.422;2023-08-31T18:35:31;13.00;73.40
9393;DHT22;4736;52.508;13.422;2023-08-31T18:38:35;13.00;73.30
9393;DHT22;4736;52.508;13.422;2023-08-31T18:41:38;13.10;73.40
9393;DHT22;4736;52.508;13.422;2023-08-31T18:44:42;13.10;72.70
9393;DHT22;4736;52.508;13.422;2023-08-31T18:47:46;13.10;72.90
9393;DHT22;4736;52.508;13.422;2023-08-31T18:50:55;13.00;73.20
9393;DHT22;4736;52.508;13.422;2023-08-31T18:53:59;13.00;73.30
9393;DHT22;4736;52.508;13.422;2023-08-31T18:57:03;12.90;73.40
9393;DHT22;4736;52.508;13.422;2023-08-31T19:00:10;12.90;73.70
9393;DHT22;4736;52.508;13.422;2023-08-31T19:03:15;12.80;73.80
9393;DHT22;4736;52.508;13.422;2023-08-31T19:06:18;12.80;74.10
9393;DHT22;4736;52.508;13.422;2023-08-31T19:09:21;12.70;74.40
9393;DHT22;4736;52.508;13.422;2023-08-31T19:12:24;12.70;74.50
9393;DHT22;4736;52.508;13.422;2023-08-31T19:15:30;12.60;74.70
9393;DHT22;4736;52.508;13.422;2023-08-31T19:18:33;12.60;74.70
9393;DHT22;4736;52.508;13.422;2023-08-31T19:21:36;12.50;74.40
9393;DHT22;4736;52.508;13.422;2023-08-31T19:24:39;12.50;74.60
9393;DHT22;4736;52.508;13.422;2023-08-31T19:27:43;12.50;74.70
9393;DHT22;4736;52.508;13.422;2023-08-31T19:30:48;12.50;74.30
9393;DHT22;4736;52.508;13.422;2023-08-31T19:33:51;12.50;74.50
9393;DHT22;4736;52.508;13.422;2023-08-31T19:36:55;12.50;74.40
9393;DHT22;4736;52.508;13.422;2023-08-31T19:39:59;12.50;74.70
9393;DHT22;4736;52.508;13.422;2023-08-31T19:43:03;12.50;74.80
9393;DHT22;4736;52.508;13.422;2023-08-31T19:46:10;12.50;75.10
9393;DHT22;4736;52.508;13.422;2023-08-31T19:49:14;12.50;75.30
9393;DHT22;4736;52.508;13.422;2023-08-31T19:52:17;12.50;75.50
9393;DHT22;4736;52.508;13.422;2023-08-31T19:55:21;12.50;75.70